createdAt,value
2023-02-12T00:00:49.964Z,64.82
2023-02-12T00:03:17.402Z,65.05
2023-02-12T00:05:44.110Z,67.25
2023-02-12T00:08:12.260Z,64.76
2023-02-12T00:10:44.870Z,64.19
2023-02-12T00:13:11.835Z,63.45
2023-02-12T00:15:39.408Z,62.51
2023-02-12T00:18:06.091Z,61.98
2023-02-12T00:20:32.733Z,62.86
2023-02-12T00:22:59.427Z,63.26
2023-02-12T00:25:26.131Z,60.94
2023-02-12T00:27:52.849Z,63.18
2023-02-12T00:30:19.562Z,64.92
2023-02-12T00:32:46.519Z,59.75
2023-02-12T00:35:13.229Z,60.70
2023-02-12T00:37:39.909Z,59.50
2023-02-12T00:40:06.952Z,61.79
2023-02-12T00:42:33.647Z,61.98
2023-02-12T00:45:00.320Z,61.16
2023-02-12T00:47:26.984Z,60.82
2023-02-12T00:49:53.642Z,63.66
2023-02-12T00:52:20.370Z,63.22
2023-02-12T00:54:47.055Z,62.31
2023-02-12T00:57:13.726Z,61.38
2023-02-12T00:59:42.410Z,63.07
2023-02-12T01:02:09.125Z,64.26
2023-02-12T01:04:35.852Z,63.82
2023-02-12T01:07:02.589Z,62.37
2023-02-12T01:09:29.343Z,62.08
2023-02-12T01:11:56.030Z,61.60
2023-02-12T01:14:22.710Z,60.16
2023-02-12T01:16:49.366Z,62.12
2023-02-12T01:19:16.020Z,64.20
2023-02-12T01:21:42.680Z,64.00
2023-02-12T01:24:09.579Z,61.53
2023-02-12T01:26:36.329Z,63.64
2023-02-12T01:29:05.354Z,65.58
2023-02-12T01:31:33.405Z,65.21
2023-02-12T01:34:00.402Z,63.22
2023-02-12T01:36:27.684Z,65.68
2023-02-12T01:38:54.412Z,62.43
2023-02-12T01:41:22.281Z,61.99
2023-02-12T01:44:07.181Z,66.11
2023-02-12T01:46:33.939Z,61.86
2023-02-12T01:49:00.691Z,62.51
2023-02-12T01:51:27.392Z,63.09
2023-02-12T01:53:54.605Z,65.59
2023-02-12T01:56:21.460Z,61.68
2023-02-12T01:58:48.123Z,62.36
2023-02-12T02:01:18.948Z,66.22
2023-02-12T02:03:46.430Z,66.38
2023-02-12T02:06:14.670Z,68.65
2023-02-12T02:08:41.356Z,69.19
2023-02-12T02:11:27.959Z,68.70
2023-02-12T02:14:13.433Z,68.60
2023-02-12T02:16:40.880Z,70.13
2023-02-12T02:19:20.604Z,69.21
2023-02-12T02:22:14.511Z,68.08
2023-02-12T02:24:41.178Z,71.58
2023-02-12T02:27:07.819Z,67.55
2023-02-12T02:29:40.329Z,67.24
2023-02-12T02:32:18.806Z,69.11
2023-02-12T02:34:51.019Z,70.33
2023-02-12T02:37:27.984Z,70.58
2023-02-12T02:39:57.771Z,69.61
2023-02-12T02:42:37.739Z,71.64
2023-02-12T02:45:21.916Z,70.40
2023-02-12T02:47:50.385Z,74.47
2023-02-12T02:50:17.772Z,72.59
2023-02-12T02:52:49.599Z,74.34
2023-02-12T02:55:18.177Z,74.06
2023-02-12T02:57:50.615Z,74.84
2023-02-12T03:00:28.432Z,71.45
2023-02-12T03:03:15.445Z,71.97
2023-02-12T03:05:46.545Z,70.91
2023-02-12T03:08:16.028Z,67.40
2023-02-12T03:10:46.294Z,73.87
2023-02-12T03:13:17.507Z,72.97
2023-02-12T03:15:52.220Z,73.10
2023-02-12T03:18:22.843Z,72.16
2023-02-12T03:20:50.835Z,73.21
2023-02-12T03:23:18.676Z,74.68
2023-02-12T03:25:50.319Z,75.04
2023-02-12T03:28:18.906Z,74.88
2023-02-12T03:31:05.961Z,78.23
2023-02-12T03:33:35.747Z,77.76
2023-02-12T03:36:12.171Z,77.11
2023-02-12T03:38:40.034Z,79.89
2023-02-12T03:41:09.802Z,79.28
2023-02-12T03:43:46.501Z,77.61
2023-02-12T03:46:33.225Z,77.73
2023-02-12T03:49:01.919Z,80.11
2023-02-12T03:51:28.590Z,83.25
2023-02-12T03:53:55.450Z,83.99
2023-02-12T03:56:30.492Z,83.96
2023-02-12T03:58:57.143Z,85.01
2023-02-12T04:01:23.977Z,85.46
2023-02-12T04:03:50.721Z,84.93
2023-02-12T04:06:25.937Z,89.25
2023-02-12T04:08:52.736Z,90.70
2023-02-12T04:11:22.459Z,88.06
2023-02-12T04:13:52.284Z,90.40
2023-02-12T04:16:38.097Z,89.59
2023-02-12T04:19:05.314Z,89.15
2023-02-12T04:21:32.015Z,91.66
2023-02-12T04:24:17.609Z,91.23
2023-02-12T04:26:55.390Z,92.72
2023-02-12T04:29:24.797Z,93.07
2023-02-12T04:31:58.826Z,93.38
2023-02-12T04:34:45.356Z,92.15
2023-02-12T04:37:22.837Z,91.24
2023-02-12T04:39:49.569Z,92.34
2023-02-12T04:42:16.253Z,92.28
2023-02-12T04:44:43.602Z,91.89
2023-02-12T04:47:13.473Z,92.56
2023-02-12T04:49:40.337Z,95.08
2023-02-12T04:52:07.266Z,93.41
2023-02-12T04:54:34.424Z,94.14
2023-02-12T04:57:01.119Z,91.55
2023-02-12T04:59:27.784Z,92.81
2023-02-12T05:01:54.430Z,92.86
2023-02-12T05:04:21.282Z,93.72
2023-02-12T05:06:47.995Z,92.55
2023-02-12T05:09:16.006Z,94.56
2023-02-12T05:11:42.833Z,94.26
2023-02-12T05:14:09.587Z,92.31
2023-02-12T05:16:36.239Z,92.11
2023-02-12T05:19:02.980Z,88.93
2023-02-12T05:21:29.695Z,90.04
2023-02-12T05:23:56.408Z,87.98
2023-02-12T05:26:23.140Z,90.95
2023-02-12T05:28:49.854Z,88.76
2023-02-12T05:31:20.032Z,88.61
2023-02-12T05:33:48.154Z,88.75
2023-02-12T05:36:15.925Z,89.28
2023-02-12T05:38:42.636Z,90.97
2023-02-12T05:41:13.357Z,91.15
2023-02-12T05:43:40.117Z,92.62
2023-02-12T05:46:06.993Z,91.67
2023-02-12T05:48:33.846Z,92.92
2023-02-12T05:51:06.583Z,96.46
2023-02-12T05:53:33.321Z,91.71
2023-02-12T05:56:13.562Z,90.29
2023-02-12T05:58:40.707Z,91.90
2023-02-12T06:01:11.664Z,90.81
2023-02-12T06:03:38.435Z,92.52
2023-02-12T06:06:05.396Z,90.37
2023-02-12T06:08:32.119Z,90.42
2023-02-12T06:11:03.093Z,91.51
2023-02-12T06:13:30.327Z,88.45
2023-02-12T06:15:57.704Z,88.59
2023-02-12T06:18:24.725Z,85.31
2023-02-12T06:20:51.650Z,87.40
2023-02-12T06:23:18.419Z,83.99
2023-02-12T06:25:45.129Z,81.41
2023-02-12T06:28:11.801Z,81.36
2023-02-12T06:30:38.562Z,84.20
2023-02-12T06:33:05.220Z,79.69
2023-02-12T06:35:31.890Z,78.68
2023-02-12T06:37:58.595Z,78.07
2023-02-12T06:40:25.290Z,77.18
2023-02-12T06:42:52.041Z,79.50
2023-02-12T06:45:18.735Z,79.51
2023-02-12T06:47:45.379Z,77.07
2023-02-12T06:50:12.026Z,72.21
2023-02-12T06:52:38.713Z,71.87
2023-02-12T06:55:05.518Z,70.43
2023-02-12T06:57:32.222Z,66.60
2023-02-12T06:59:58.869Z,68.70
2023-02-12T07:02:25.565Z,70.17
2023-02-12T07:04:52.318Z,67.81
2023-02-12T07:07:19.019Z,66.26
2023-02-12T07:09:45.670Z,67.97
2023-02-12T07:12:12.320Z,71.53
2023-02-12T07:14:39.060Z,66.61
2023-02-12T07:17:08.034Z,69.22
2023-02-12T07:19:34.685Z,62.75
2023-02-12T07:22:01.396Z,61.65
2023-02-12T07:24:28.058Z,58.71
2023-02-12T07:26:54.730Z,60.18
2023-02-12T07:29:21.400Z,59.33
2023-02-12T07:31:48.150Z,59.17
2023-02-12T07:34:14.813Z,60.92
2023-02-12T07:36:42.370Z,60.77
2023-02-12T07:39:10.718Z,64.28
2023-02-12T07:41:37.507Z,67.15
2023-02-12T07:44:07.556Z,70.64
2023-02-12T07:46:35.680Z,70.97
2023-02-12T07:49:04.474Z,74.67
2023-02-12T07:51:32.867Z,71.75
2023-02-12T07:54:00.786Z,66.84
2023-02-12T07:56:32.708Z,65.82
2023-02-12T07:59:03.372Z,61.06
2023-02-12T08:01:39.216Z,61.88
2023-02-12T08:04:07.465Z,59.36
2023-02-12T08:06:35.419Z,62.72
2023-02-12T08:09:03.934Z,55.25
2023-02-12T08:11:30.625Z,54.71
2023-02-12T08:13:57.660Z,51.48
2023-02-12T08:16:25.276Z,49.91
2023-02-12T08:18:52.227Z,56.38
2023-02-12T08:21:22.377Z,55.50
2023-02-12T08:23:52.195Z,54.60
2023-02-12T08:26:19.953Z,53.29
2023-02-12T08:28:47.792Z,49.04
2023-02-12T08:31:16.177Z,51.30
2023-02-12T08:33:44.437Z,54.54
2023-02-12T08:36:12.091Z,55.62
2023-02-12T08:38:39.199Z,51.82
2023-02-12T08:41:07.133Z,52.58
2023-02-12T08:43:33.910Z,58.63
2023-02-12T08:46:10.718Z,51.87
2023-02-12T08:48:37.590Z,52.69
2023-02-12T08:51:11.522Z,54.86
2023-02-12T08:53:38.887Z,53.52
2023-02-12T08:56:05.723Z,54.79
2023-02-12T08:58:32.917Z,58.25
2023-02-12T09:00:59.719Z,59.24
2023-02-12T09:03:26.412Z,62.65
2023-02-12T09:05:53.406Z,62.24
2023-02-12T09:08:20.210Z,64.25
2023-02-12T09:10:46.888Z,60.64
2023-02-12T09:13:13.772Z,57.96
2023-02-12T09:15:43.282Z,55.27
2023-02-12T09:18:11.557Z,55.55
2023-02-12T09:20:39.903Z,53.37
2023-02-12T09:23:07.271Z,54.63
2023-02-12T09:25:38.029Z,51.11
2023-02-12T09:28:04.839Z,52.87
2023-02-12T09:30:31.562Z,52.96
2023-02-12T09:32:58.266Z,57.41
2023-02-12T09:35:25.033Z,54.18
2023-02-12T09:37:52.868Z,56.29
2023-02-12T09:40:22.751Z,54.89
2023-02-12T09:42:52.852Z,56.65
2023-02-12T09:45:23.678Z,54.31
2023-02-12T09:48:03.193Z,54.43
2023-02-12T09:50:29.859Z,53.62
2023-02-12T09:52:58.137Z,54.19
2023-02-12T09:55:26.093Z,54.11
2023-02-12T09:57:54.868Z,53.90
2023-02-12T10:00:29.068Z,53.63
2023-02-12T10:02:55.772Z,52.77
2023-02-12T10:05:26.094Z,54.84
2023-02-12T10:08:04.811Z,52.49
2023-02-12T10:10:37.658Z,53.24
2023-02-12T10:13:05.051Z,53.90
2023-02-12T10:15:34.641Z,52.63
2023-02-12T10:18:07.467Z,56.72
2023-02-12T10:20:34.136Z,54.79
2023-02-12T10:23:06.641Z,54.59
2023-02-12T10:25:48.853Z,54.88
2023-02-12T10:28:24.474Z,53.34
2023-02-12T10:31:00.665Z,54.09
2023-02-12T10:33:28.642Z,54.46
2023-02-12T10:35:57.795Z,53.80
2023-02-12T10:38:26.710Z,54.34
2023-02-12T10:40:55.402Z,50.82
2023-02-12T10:43:22.077Z,50.24
2023-02-12T10:45:50.657Z,48.84
2023-02-12T10:48:20.794Z,50.69
2023-02-12T10:51:16.780Z,49.59
2023-02-12T10:53:44.686Z,54.25
2023-02-12T10:56:21.835Z,49.17
2023-02-12T10:58:56.031Z,47.50
2023-02-12T11:01:27.330Z,46.56
2023-02-12T11:03:54.621Z,48.12
2023-02-12T11:06:26.053Z,49.44
2023-02-12T11:08:52.906Z,50.69
2023-02-12T11:11:22.482Z,49.94
2023-02-12T11:13:55.408Z,51.24
2023-02-12T11:16:29.088Z,52.78
2023-02-12T11:19:02.607Z,55.12
2023-02-12T11:21:29.344Z,53.62
2023-02-12T11:23:56.060Z,52.34
2023-02-12T11:26:24.302Z,53.27
2023-02-12T11:28:58.212Z,52.09
2023-02-12T11:31:28.674Z,49.36
2023-02-12T11:34:04.448Z,47.62
2023-02-12T11:36:31.161Z,46.50
2023-02-12T11:38:58.162Z,49.11
2023-02-12T11:41:34.728Z,48.12
2023-02-12T11:44:01.682Z,48.75
2023-02-12T11:46:28.419Z,48.57
2023-02-12T11:48:55.652Z,49.62
2023-02-12T11:51:24.902Z,50.14
2023-02-12T11:53:52.323Z,51.52
2023-02-12T11:56:19.246Z,52.34
2023-02-12T11:58:46.470Z,51.23
2023-02-12T12:01:16.183Z,50.49
2023-02-12T12:03:47.138Z,56.04
2023-02-12T12:06:16.900Z,57.11
2023-02-12T12:08:49.771Z,56.25
2023-02-12T12:11:17.461Z,55.63
2023-02-12T12:13:52.660Z,55.12
2023-02-12T12:16:40.023Z,56.18
2023-02-12T12:19:29.140Z,54.78
2023-02-12T12:22:17.836Z,56.54
2023-02-12T12:24:46.490Z,52.04
2023-02-12T12:27:36.351Z,51.75
2023-02-12T12:30:06.952Z,50.48
2023-02-12T12:32:34.412Z,49.01
2023-02-12T12:35:01.084Z,53.19
2023-02-12T12:37:27.757Z,54.93
2023-02-12T12:39:58.702Z,56.72
2023-02-12T12:42:44.159Z,56.77
2023-02-12T12:45:19.982Z,53.83
2023-02-12T12:47:58.816Z,56.88
2023-02-12T12:50:37.420Z,56.65
2023-02-12T12:53:07.461Z,57.07
2023-02-12T12:55:37.125Z,56.08
2023-02-12T12:58:19.484Z,56.68
2023-02-12T13:00:55.114Z,55.75
2023-02-12T13:03:52.694Z,57.53
2023-02-12T13:06:37.974Z,56.73
2023-02-12T13:09:19.771Z,56.95
2023-02-12T13:11:49.822Z,55.67
2023-02-12T13:14:36.188Z,53.26
2023-02-12T13:17:10.870Z,53.63
2023-02-12T13:19:41.431Z,51.81
2023-02-12T13:22:08.075Z,51.34
2023-02-12T13:24:38.110Z,49.17
2023-02-12T13:27:15.112Z,49.32
2023-02-12T13:30:00.529Z,49.04
2023-02-12T13:32:43.449Z,50.71
2023-02-12T13:35:14.741Z,52.22
2023-02-12T13:37:46.683Z,53.55
2023-02-12T13:40:17.571Z,54.43
2023-02-12T13:42:49.786Z,54.72
2023-02-12T13:45:18.282Z,54.87
2023-02-12T13:47:54.017Z,54.48
2023-02-12T13:50:20.693Z,54.88
2023-02-12T13:52:47.352Z,57.35
2023-02-12T13:55:17.009Z,56.14
2023-02-12T13:57:43.732Z,56.40
2023-02-12T14:00:30.695Z,56.15
2023-02-12T14:02:57.353Z,58.02
2023-02-12T14:05:30.851Z,55.32
2023-02-12T14:08:02.368Z,57.93
2023-02-12T14:10:38.748Z,55.80
2023-02-12T14:13:14.580Z,56.99
2023-02-12T14:15:41.798Z,53.35
2023-02-12T14:18:22.142Z,55.18
2023-02-12T14:20:48.875Z,53.55
2023-02-12T14:23:23.178Z,55.94
2023-02-12T14:25:56.423Z,57.70
2023-02-12T14:28:26.452Z,54.79
2023-02-12T14:31:11.980Z,54.58
2023-02-12T14:33:38.696Z,54.94
2023-02-12T14:36:14.642Z,54.65
2023-02-12T14:38:47.470Z,54.61
2023-02-12T14:41:43.268Z,55.08
2023-02-12T14:44:26.925Z,55.28
2023-02-12T14:46:54.397Z,55.12
2023-02-12T14:49:25.412Z,51.12
2023-02-12T14:51:52.073Z,50.67
2023-02-12T14:54:37.159Z,52.38
2023-02-12T14:57:19.103Z,55.43
2023-02-12T14:59:45.825Z,55.52
2023-02-12T15:02:14.733Z,55.80
2023-02-12T15:04:41.450Z,56.29
2023-02-12T15:07:09.113Z,55.94
2023-02-12T15:09:46.958Z,57.65
2023-02-12T15:12:26.912Z,57.46
2023-02-12T15:14:56.959Z,56.80
2023-02-12T15:17:28.299Z,54.28
2023-02-12T15:19:57.529Z,54.92
2023-02-12T15:22:29.842Z,54.08
2023-02-12T15:25:15.095Z,54.41
2023-02-12T15:27:44.982Z,54.51
2023-02-12T15:30:25.585Z,54.77
2023-02-12T15:32:53.204Z,55.52
2023-02-12T15:35:23.041Z,55.94
2023-02-12T15:37:49.751Z,55.39
2023-02-12T15:40:16.740Z,57.61
2023-02-12T15:42:56.773Z,55.30
2023-02-12T15:45:27.425Z,56.60
2023-02-12T15:48:09.524Z,54.70
2023-02-12T15:51:06.508Z,55.83
2023-02-12T15:53:33.203Z,54.89
2023-02-12T15:56:00.104Z,55.09
2023-02-12T15:58:33.294Z,57.40
2023-02-12T16:01:01.444Z,57.34
2023-02-12T16:03:31.489Z,57.22
2023-02-12T16:06:01.763Z,58.31
2023-02-12T16:08:28.461Z,58.80
2023-02-12T16:10:55.156Z,57.45
2023-02-12T16:13:31.835Z,56.64
2023-02-12T16:16:14.709Z,55.87
2023-02-12T16:18:42.046Z,58.14
2023-02-12T16:21:19.872Z,58.72
2023-02-12T16:23:47.170Z,59.07
2023-02-12T16:26:20.726Z,57.50
2023-02-12T16:28:48.465Z,56.65
2023-02-12T16:31:15.539Z,59.74
2023-02-12T16:33:45.940Z,58.53
2023-02-12T16:36:27.034Z,59.42
2023-02-12T16:39:03.854Z,57.22
2023-02-12T16:41:34.205Z,59.18
2023-02-12T16:44:00.874Z,56.93
2023-02-12T16:46:34.738Z,57.68
2023-02-12T16:49:01.714Z,59.31
2023-02-12T16:51:29.763Z,59.45
2023-02-12T16:53:57.782Z,58.74
2023-02-12T16:56:25.588Z,58.54
2023-02-12T16:58:55.540Z,58.74
2023-02-12T17:01:32.009Z,57.80
2023-02-12T17:03:58.930Z,59.97
2023-02-12T17:06:26.895Z,59.96
2023-02-12T17:08:53.654Z,59.20
2023-02-12T17:11:20.833Z,57.07
2023-02-12T17:13:48.434Z,59.52
2023-02-12T17:16:29.427Z,58.94
2023-02-12T17:18:57.356Z,56.96
2023-02-12T17:21:24.680Z,58.17
2023-02-12T17:23:51.503Z,57.75
2023-02-12T17:26:18.137Z,55.01
2023-02-12T17:28:44.838Z,50.90
2023-02-12T17:31:11.795Z,49.78
2023-02-12T17:33:38.704Z,50.42
2023-02-12T17:36:05.631Z,47.65
2023-02-12T17:38:32.505Z,48.80
2023-02-12T17:40:59.553Z,52.42
2023-02-12T17:43:26.292Z,54.37
2023-02-12T17:45:53.630Z,55.26
2023-02-12T17:48:22.840Z,54.97
2023-02-12T17:50:53.582Z,56.32
2023-02-12T17:53:20.248Z,58.22
2023-02-12T17:55:46.930Z,57.92
2023-02-12T17:58:13.593Z,57.74
2023-02-12T18:00:43.214Z,55.60
2023-02-12T18:03:09.945Z,56.65
2023-02-12T18:05:40.540Z,58.53
2023-02-12T18:08:07.223Z,60.34
2023-02-12T18:10:33.892Z,58.09
2023-02-12T18:13:00.561Z,51.45
2023-02-12T18:15:27.260Z,51.66
2023-02-12T18:17:53.936Z,51.76
2023-02-12T18:20:21.297Z,51.78
2023-02-12T18:22:50.216Z,53.72
2023-02-12T18:25:18.055Z,52.19
2023-02-12T18:27:45.362Z,52.93
2023-02-12T18:30:12.298Z,52.75
2023-02-12T18:32:38.973Z,51.87
2023-02-12T18:35:06.248Z,52.92
2023-02-12T18:37:33.010Z,54.21
2023-02-12T18:40:00.499Z,52.62
2023-02-12T18:42:28.668Z,51.39
2023-02-12T18:44:55.469Z,54.20
2023-02-12T18:47:22.145Z,57.28
2023-02-12T18:49:48.825Z,57.38
2023-02-12T18:52:15.521Z,57.08
2023-02-12T18:54:44.213Z,60.00
2023-02-12T18:57:10.969Z,59.32
2023-02-12T18:59:37.633Z,58.73
2023-02-12T19:02:04.775Z,60.85
2023-02-12T19:04:31.624Z,59.89
2023-02-12T19:06:59.752Z,58.45
2023-02-12T19:09:26.838Z,53.77
2023-02-12T19:11:54.622Z,57.48
2023-02-12T19:14:22.047Z,51.94
2023-02-12T19:16:48.941Z,54.10
2023-02-12T19:19:15.817Z,55.09
2023-02-12T19:21:42.636Z,51.47
2023-02-12T19:24:10.650Z,49.62
2023-02-12T19:26:37.533Z,47.90
2023-02-12T19:29:04.907Z,49.21
2023-02-12T19:31:33.322Z,50.46
2023-02-12T19:34:08.412Z,50.98
2023-02-12T19:36:35.869Z,49.26
2023-02-12T19:39:03.981Z,48.97
2023-02-12T19:41:30.714Z,46.76
2023-02-12T19:43:58.870Z,45.56
2023-02-12T19:46:26.650Z,48.72
2023-02-12T19:48:59.475Z,48.62
2023-02-12T19:51:26.424Z,48.38
2023-02-12T19:53:53.313Z,48.13
2023-02-12T19:56:20.038Z,45.70
2023-02-12T19:58:46.700Z,45.15
2023-02-12T20:01:19.987Z,46.84
2023-02-12T20:03:47.020Z,46.97
2023-02-12T20:06:14.944Z,46.01
2023-02-12T20:08:41.865Z,47.54
2023-02-12T20:11:11.470Z,48.31
2023-02-12T20:13:38.205Z,46.79
2023-02-12T20:16:16.137Z,47.25
2023-02-12T20:18:43.721Z,46.69
2023-02-12T20:21:14.505Z,48.42
2023-02-12T20:23:41.288Z,49.36
2023-02-12T20:26:08.813Z,48.09
2023-02-12T20:28:35.797Z,49.52
2023-02-12T20:31:32.089Z,49.24
2023-02-12T20:34:00.359Z,48.09
2023-02-12T20:36:27.659Z,50.43
2023-02-12T20:38:56.176Z,50.12
2023-02-12T20:41:23.713Z,53.00
2023-02-12T20:43:50.375Z,51.24
2023-02-12T20:46:18.468Z,49.49
2023-02-12T20:48:45.216Z,50.11
2023-02-12T20:51:12.906Z,48.85
2023-02-12T20:53:39.809Z,50.66
2023-02-12T20:56:11.068Z,48.68
2023-02-12T20:58:39.014Z,47.93
2023-02-12T21:01:06.361Z,49.30
2023-02-12T21:03:33.071Z,52.00
2023-02-12T21:05:59.741Z,51.04
2023-02-12T21:08:26.469Z,51.30
2023-02-12T21:11:06.841Z,54.68
2023-02-12T21:13:33.604Z,54.54
2023-02-12T21:16:03.648Z,56.71
2023-02-12T21:18:30.398Z,56.80
2023-02-12T21:21:00.977Z,54.72
2023-02-12T21:23:27.595Z,54.33
2023-02-12T21:26:07.460Z,56.26
2023-02-12T21:28:34.457Z,55.71
2023-02-12T21:31:12.695Z,55.61
2023-02-12T21:33:39.883Z,56.74
2023-02-12T21:36:07.380Z,55.96
2023-02-12T21:38:35.001Z,53.50
2023-02-12T21:41:08.762Z,48.85
2023-02-12T21:43:35.814Z,47.89
2023-02-12T21:46:02.649Z,48.82
2023-02-12T21:48:29.345Z,48.14
2023-02-12T21:50:56.361Z,48.97
2023-02-12T21:53:23.184Z,47.86
2023-02-12T21:55:49.884Z,47.56
2023-02-12T21:58:16.582Z,49.59
2023-02-12T22:00:43.282Z,49.73
2023-02-12T22:03:09.951Z,49.57
2023-02-12T22:05:36.619Z,49.45
2023-02-12T22:08:03.432Z,47.80
2023-02-12T22:10:30.173Z,46.43
2023-02-12T22:12:56.906Z,47.53
2023-02-12T22:15:23.632Z,47.71
2023-02-12T22:17:50.297Z,48.18
2023-02-12T22:20:16.970Z,49.81
2023-02-12T22:22:43.605Z,48.32
2023-02-12T22:25:10.271Z,46.31
2023-02-12T22:27:36.965Z,46.88
2023-02-12T22:30:03.747Z,46.92
2023-02-12T22:32:30.577Z,47.86
2023-02-12T22:34:57.350Z,48.21
2023-02-12T22:37:24.036Z,48.57
2023-02-12T22:39:50.784Z,49.12
2023-02-12T22:42:17.452Z,49.83
2023-02-12T22:44:44.132Z,50.07
2023-02-12T22:47:10.818Z,50.08
2023-02-12T22:49:37.444Z,50.17
2023-02-12T22:52:04.205Z,49.59
2023-02-12T22:54:30.877Z,47.81
2023-02-12T22:56:57.576Z,47.36
2023-02-12T22:59:24.232Z,48.25
2023-02-12T23:01:50.972Z,49.05
2023-02-12T23:04:18.884Z,51.51
2023-02-12T23:06:45.588Z,48.51
2023-02-12T23:09:13.398Z,47.26
2023-02-12T23:11:40.071Z,48.57
2023-02-12T23:14:06.816Z,50.61
2023-02-12T23:16:34.286Z,52.99
2023-02-12T23:19:01.264Z,56.76
2023-02-12T23:21:29.114Z,54.02
2023-02-12T23:23:56.036Z,53.22
2023-02-12T23:26:22.734Z,53.19
2023-02-12T23:28:49.472Z,52.70
2023-02-12T23:31:16.302Z,53.21
2023-02-12T23:33:43.006Z,53.24
2023-02-12T23:36:09.856Z,51.12
2023-02-12T23:38:36.519Z,52.81
2023-02-12T23:41:03.170Z,53.33
2023-02-12T23:43:30.091Z,52.54
2023-02-12T23:45:56.784Z,50.86
2023-02-12T23:48:23.518Z,48.77
2023-02-12T23:50:50.206Z,50.54
2023-02-12T23:53:17.929Z,52.25
2023-02-12T23:55:44.602Z,52.94
2023-02-12T23:58:11.343Z,51.82
